sensor_id;sensor_type;location;lat;lon;timestamp;pressure;altitude;pressure_sealevel;temperature;humidity
32456;BME280;18912;43.270;27.942;2023-06-10T00:00:36;97573.59;;;19.11;52.91
32456;BME280;18912;43.270;27.942;2023-06-10T00:03:02;97577.44;;;19.15;52.45
32456;BME280;18912;43.270;27.942;2023-06-10T00:05:27;97575.25;;;19.22;52.06
32456;BME280;18912;43.270;27.942;2023-06-10T00:07:55;97578.53;;;19.29;52.00
32456;BME280;18912;43.270;27.942;2023-06-10T00:10:21;97579.91;;;19.32;51.76
32456;BME280;18912;43.270;27.942;2023-06-10T00:12:46;97582.91;;;19.05;51.87
32456;BME280;18912;43.270;27.942;2023-06-10T00:15:12;97588.69;;;19.09;52.06
32456;BME280;18912;43.270;27.942;2023-06-10T00:17:37;97591.69;;;19.12;52.01
32456;BME280;18912;43.270;27.942;2023-06-10T00:20:05;97589.78;;;19.08;51.93
32456;BME280;18912;43.270;27.942;2023-06-10T00:22:34;97596.06;;;19.13;51.56
32456;BME280;18912;43.270;27.942;2023-06-10T00:24:59;97587.59;;;19.10;51.35
32456;BME280;18912;43.270;27.942;2023-06-10T00:27:25;97594.69;;;19.06;51.27
32456;BME280;18912;43.270;27.942;2023-06-10T00:29:56;97593.06;;;18.75;52.33
32456;BME280;18912;43.270;27.942;2023-06-10T00:32:21;97592.22;;;18.69;52.25
32456;BME280;18912;43.270;27.942;2023-06-10T00:34:46;97582.63;;;18.67;52.11
32456;BME280;18912;43.270;27.942;2023-06-10T00:37:12;97585.06;;;18.53;52.29
32456;BME280;18912;43.270;27.942;2023-06-10T00:39:37;97586.47;;;18.71;51.87
32456;BME280;18912;43.270;27.942;2023-06-10T00:42:02;97591.38;;;18.58;51.99
32456;BME280;18912;43.270;27.942;2023-06-10T00:44:32;97584.84;;;18.75;51.47
32456;BME280;18912;43.270;27.942;2023-06-10T00:46:57;97584.25;;;18.67;51.38
32456;BME280;18912;43.270;27.942;2023-06-10T00:49:22;97583.97;;;18.59;51.58
32456;BME280;18912;43.270;27.942;2023-06-10T00:51:48;97587.28;;;18.66;51.48
32456;BME280;18912;43.270;27.942;2023-06-10T00:54:13;97588.38;;;18.65;50.88
32456;BME280;18912;43.270;27.942;2023-06-10T00:56:38;97588.91;;;18.62;51.35
32456;BME280;18912;43.270;27.942;2023-06-10T00:59:04;97586.75;;;18.69;51.11
32456;BME280;18912;43.270;27.942;2023-06-10T01:01:29;97585.34;;;18.72;51.24
32456;BME280;18912;43.270;27.942;2023-06-10T01:03:54;97581.81;;;18.76;51.27
32456;BME280;18912;43.270;27.942;2023-06-10T01:06:24;97587.81;;;18.63;51.35
32456;BME280;18912;43.270;27.942;2023-06-10T01:09:01;97580.41;;;18.58;51.72
32456;BME280;18912;43.270;27.942;2023-06-10T01:11:40;97592.72;;;18.56;52.10
32456;BME280;18912;43.270;27.942;2023-06-10T01:14:06;97588.88;;;18.47;51.94
32456;BME280;18912;43.270;27.942;2023-06-10T01:16:32;97594.09;;;18.63;52.00
32456;BME280;18912;43.270;27.942;2023-06-10T01:19:00;97591.13;;;18.65;51.77
32456;BME280;18912;43.270;27.942;2023-06-10T01:21:25;97586.47;;;18.76;51.88
32456;BME280;18912;43.270;27.942;2023-06-10T01:23:54;97581.28;;;18.69;52.11
32456;BME280;18912;43.270;27.942;2023-06-10T01:26:22;97577.69;;;18.63;51.96
32456;BME280;18912;43.270;27.942;2023-06-10T01:31:23;97585.88;;;18.58;51.56
32456;BME280;18912;43.270;27.942;2023-06-10T01:33:59;97576.03;;;18.47;51.55
32456;BME280;18912;43.270;27.942;2023-06-10T01:36:24;97580.41;;;18.53;51.53
32456;BME280;18912;43.270;27.942;2023-06-10T01:38:50;97573.03;;;18.64;51.41
32456;BME280;18912;43.270;27.942;2023-06-10T01:41:18;97567.28;;;18.65;51.22
32456;BME280;18912;43.270;27.942;2023-06-10T01:43:44;97567.84;;;18.57;51.06
32456;BME280;18912;43.270;27.942;2023-06-10T01:46:10;97571.66;;;18.51;50.98
32456;BME280;18912;43.270;27.942;2023-06-10T01:48:36;97576.56;;;18.49;50.90
32456;BME280;18912;43.270;27.942;2023-06-10T01:51:02;97575.22;;;18.52;50.65
32456;BME280;18912;43.270;27.942;2023-06-10T01:53:27;97569.47;;;18.58;50.52
32456;BME280;18912;43.270;27.942;2023-06-10T01:55:52;97562.88;;;18.54;50.69
32456;BME280;18912;43.270;27.942;2023-06-10T01:58:18;97567.25;;;18.45;51.12
32456;BME280;18912;43.270;27.942;2023-06-10T02:00:43;97563.38;;;18.41;51.05
32456;BME280;18912;43.270;27.942;2023-06-10T02:03:08;97565.00;;;18.37;51.02
32456;BME280;18912;43.270;27.942;2023-06-10T02:05:33;97562.28;;;18.27;51.17
32456;BME280;18912;43.270;27.942;2023-06-10T02:07:59;97571.56;;;18.31;51.16
32456;BME280;18912;43.270;27.942;2023-06-10T02:10:24;97564.44;;;18.35;50.63
32456;BME280;18912;43.270;27.942;2023-06-10T02:12:50;97566.66;;;18.38;50.42
32456;BME280;18912;43.270;27.942;2023-06-10T02:15:15;97566.13;;;18.36;50.31
32456;BME280;18912;43.270;27.942;2023-06-10T02:17:41;97563.84;;;18.18;50.65
32456;BME280;18912;43.270;27.942;2023-06-10T02:20:06;97569.28;;;18.03;50.80
32456;BME280;18912;43.270;27.942;2023-06-10T02:22:32;97568.75;;;18.06;51.21
32456;BME280;18912;43.270;27.942;2023-06-10T02:24:58;97566.03;;;18.06;51.00
32456;BME280;18912;43.270;27.942;2023-06-10T02:27:23;97575.28;;;18.00;50.83
32456;BME280;18912;43.270;27.942;2023-06-10T02:29:49;97569.31;;;18.08;50.51
32456;BME280;18912;43.270;27.942;2023-06-10T02:32:14;97575.31;;;18.05;50.64
32456;BME280;18912;43.270;27.942;2023-06-10T02:34:40;97569.00;;;18.05;50.36
32456;BME280;18912;43.270;27.942;2023-06-10T02:37:05;97571.44;;;17.91;50.58
32456;BME280;18912;43.270;27.942;2023-06-10T02:39:30;97569.47;;;17.82;50.61
32456;BME280;18912;43.270;27.942;2023-06-10T02:41:56;97575.72;;;17.77;50.51
32456;BME280;18912;43.270;27.942;2023-06-10T02:44:21;97575.22;;;17.85;50.38
32456;BME280;18912;43.270;27.942;2023-06-10T02:46:46;97571.66;;;17.90;50.30
32456;BME280;18912;43.270;27.942;2023-06-10T02:49:12;97576.84;;;17.81;50.69
32456;BME280;18912;43.270;27.942;2023-06-10T02:51:37;97574.09;;;17.81;51.75
32456;BME280;18912;43.270;27.942;2023-06-10T02:54:03;97569.53;;;17.97;51.33
32456;BME280;18912;43.270;27.942;2023-06-10T02:56:28;97570.34;;;17.97;50.98
32456;BME280;18912;43.270;27.942;2023-06-10T02:58:53;97575.84;;;18.07;51.02
32456;BME280;18912;43.270;27.942;2023-06-10T03:01:19;97583.53;;;18.10;51.01
32456;BME280;18912;43.270;27.942;2023-06-10T03:03:44;97579.75;;;18.21;50.80
32456;BME280;18912;43.270;27.942;2023-06-10T03:06:11;97583.59;;;18.30;51.07
32456;BME280;18912;43.270;27.942;2023-06-10T03:08:37;97590.25;;;18.44;50.94
32456;BME280;18912;43.270;27.942;2023-06-10T03:11:03;97587.25;;;18.56;50.99
32456;BME280;18912;43.270;27.942;2023-06-10T03:13:28;97584.28;;;18.73;50.99
32456;BME280;18912;43.270;27.942;2023-06-10T03:15:53;97584.56;;;18.81;51.01
32456;BME280;18912;43.270;27.942;2023-06-10T03:18:18;97575.53;;;18.96;51.04
32456;BME280;18912;43.270;27.942;2023-06-10T03:20:44;97581.00;;;19.06;51.12
32456;BME280;18912;43.270;27.942;2023-06-10T03:23:09;97570.88;;;19.16;50.91
32456;BME280;18912;43.270;27.942;2023-06-10T03:25:34;97573.31;;;18.98;51.15
32456;BME280;18912;43.270;27.942;2023-06-10T03:28:00;97578.28;;;19.16;50.74
32456;BME280;18912;43.270;27.942;2023-06-10T03:30:26;97576.09;;;19.43;50.76
32456;BME280;18912;43.270;27.942;2023-06-10T03:32:52;97567.84;;;19.58;50.62
32456;BME280;18912;43.270;27.942;2023-06-10T03:35:17;97572.19;;;19.79;50.49
32456;BME280;18912;43.270;27.942;2023-06-10T03:37:42;97569.59;;;20.03;50.69
32456;BME280;18912;43.270;27.942;2023-06-10T03:40:08;97569.81;;;20.16;50.87
32456;BME280;18912;43.270;27.942;2023-06-10T03:42:34;97565.91;;;20.37;50.89
32456;BME280;18912;43.270;27.942;2023-06-10T03:45:00;97568.19;;;20.69;50.90
32456;BME280;18912;43.270;27.942;2023-06-10T03:47:25;97564.97;;;20.96;50.81
32456;BME280;18912;43.270;27.942;2023-06-10T03:49:50;97567.78;;;21.24;50.31
32456;BME280;18912;43.270;27.942;2023-06-10T03:52:17;97570.84;;;21.52;49.85
32456;BME280;18912;43.270;27.942;2023-06-10T03:54:42;97565.41;;;21.70;50.16
32456;BME280;18912;43.270;27.942;2023-06-10T03:57:08;97570.44;;;21.92;49.64
32456;BME280;18912;43.270;27.942;2023-06-10T03:59:33;97563.81;;;22.16;49.52
32456;BME280;18912;43.270;27.942;2023-06-10T04:01:58;97566.41;;;22.26;49.89
32456;BME280;18912;43.270;27.942;2023-06-10T04:04:24;97561.75;;;22.46;49.79
32456;BME280;18912;43.270;27.942;2023-06-10T04:06:49;97573.41;;;22.61;48.43
32456;BME280;18912;43.270;27.942;2023-06-10T04:09:15;97567.63;;;22.81;48.80
32456;BME280;18912;43.270;27.942;2023-06-10T04:11:41;97569.66;;;23.27;48.69
32456;BME280;18912;43.270;27.942;2023-06-10T04:14:07;97573.94;;;23.51;48.91
32456;BME280;18912;43.270;27.942;2023-06-10T04:16:33;97566.81;;;23.77;48.93
32456;BME280;18912;43.270;27.942;2023-06-10T04:18:58;97560.41;;;24.09;48.53
32456;BME280;18912;43.270;27.942;2023-06-10T04:21:24;97562.84;;;24.38;47.76
32456;BME280;18912;43.270;27.942;2023-06-10T04:23:49;97560.56;;;24.67;46.85
32456;BME280;18912;43.270;27.942;2023-06-10T04:26:15;97565.22;;;24.93;46.36
32456;BME280;18912;43.270;27.942;2023-06-10T04:28:42;97569.47;;;25.13;45.00
32456;BME280;18912;43.270;27.942;2023-06-10T04:31:07;97569.75;;;25.34;43.75
32456;BME280;18912;43.270;27.942;2023-06-10T04:33:33;97567.44;;;25.49;42.46
32456;BME280;18912;43.270;27.942;2023-06-10T04:35:58;97568.59;;;25.79;42.45
32456;BME280;18912;43.270;27.942;2023-06-10T04:38:24;97570.38;;;26.06;41.96
32456;BME280;18912;43.270;27.942;2023-06-10T04:40:49;97571.13;;;26.37;41.37
32456;BME280;18912;43.270;27.942;2023-06-10T04:43:14;97572.78;;;26.38;41.46
32456;BME280;18912;43.270;27.942;2023-06-10T04:45:41;97570.50;;;26.40;41.12
32456;BME280;18912;43.270;27.942;2023-06-10T04:48:10;97577.44;;;26.85;40.38
32456;BME280;18912;43.270;27.942;2023-06-10T04:50:35;97579.75;;;27.17;40.17
32456;BME280;18912;43.270;27.942;2023-06-10T04:53:01;97579.78;;;27.34;40.08
32456;BME280;18912;43.270;27.942;2023-06-10T04:55:26;97578.78;;;27.56;39.91
32456;BME280;18912;43.270;27.942;2023-06-10T04:57:51;97575.97;;;27.64;39.84
32456;BME280;18912;43.270;27.942;2023-06-10T05:00:17;97580.66;;;27.81;39.76
32456;BME280;18912;43.270;27.942;2023-06-10T05:02:42;97586.34;;;28.02;39.39
32456;BME280;18912;43.270;27.942;2023-06-10T05:05:08;97578.72;;;28.28;39.96
32456;BME280;18912;43.270;27.942;2023-06-10T05:07:33;97572.38;;;28.56;39.95
32456;BME280;18912;43.270;27.942;2023-06-10T05:09:58;97580.50;;;28.91;39.21
32456;BME280;18912;43.270;27.942;2023-06-10T05:12:24;97582.81;;;28.89;38.52
32456;BME280;18912;43.270;27.942;2023-06-10T05:14:49;97575.44;;;29.13;39.01
32456;BME280;18912;43.270;27.942;2023-06-10T05:17:15;97576.84;;;29.40;37.91
32456;BME280;18912;43.270;27.942;2023-06-10T05:19:40;97579.34;;;29.54;36.93
32456;BME280;18912;43.270;27.942;2023-06-10T05:22:06;97578.06;;;29.84;36.32
32456;BME280;18912;43.270;27.942;2023-06-10T05:24:31;97578.22;;;30.11;35.78
32456;BME280;18912;43.270;27.942;2023-06-10T05:26:57;97581.88;;;30.36;35.83
32456;BME280;18912;43.270;27.942;2023-06-10T05:29:22;97571.31;;;30.29;35.07
32456;BME280;18912;43.270;27.942;2023-06-10T05:31:48;97572.81;;;30.75;34.28
32456;BME280;18912;43.270;27.942;2023-06-10T05:34:13;97577.53;;;31.11;34.13
32456;BME280;18912;43.270;27.942;2023-06-10T05:36:38;97574.19;;;31.05;33.73
32456;BME280;18912;43.270;27.942;2023-06-10T05:39:04;97572.81;;;31.39;34.02
32456;BME280;18912;43.270;27.942;2023-06-10T05:41:29;97565.41;;;31.59;33.52
32456;BME280;18912;43.270;27.942;2023-06-10T05:43:55;97576.00;;;31.81;33.07
32456;BME280;18912;43.270;27.942;2023-06-10T05:46:21;97565.44;;;31.90;33.04
32456;BME280;18912;43.270;27.942;2023-06-10T05:48:46;97560.97;;;32.01;32.10
32456;BME280;18912;43.270;27.942;2023-06-10T05:51:12;97565.69;;;32.59;31.52
32456;BME280;18912;43.270;27.942;2023-06-10T05:53:37;97567.38;;;32.95;30.85
32456;BME280;18912;43.270;27.942;2023-06-10T05:56:03;97554.25;;;32.99;30.54
32456;BME280;18912;43.270;27.942;2023-06-10T05:58:28;97555.69;;;32.93;31.35
32456;BME280;18912;43.270;27.942;2023-06-10T06:00:54;97561.16;;;32.70;31.25
32456;BME280;18912;43.270;27.942;2023-06-10T06:03:21;97568.22;;;32.64;30.99
32456;BME280;18912;43.270;27.942;2023-06-10T06:05:46;97565.84;;;32.97;30.36
32456;BME280;18912;43.270;27.942;2023-06-10T06:08:11;97565.91;;;33.01;31.21
32456;BME280;18912;43.270;27.942;2023-06-10T06:10:38;97570.63;;;32.66;30.64
32456;BME280;18912;43.270;27.942;2023-06-10T06:13:03;97566.41;;;32.56;30.75
32456;BME280;18912;43.270;27.942;2023-06-10T06:15:29;97561.13;;;33.01;30.77
32456;BME280;18912;43.270;27.942;2023-06-10T06:17:54;97559.56;;;33.04;30.93
32456;BME280;18912;43.270;27.942;2023-06-10T06:20:21;97552.44;;;33.07;31.78
32456;BME280;18912;43.270;27.942;2023-06-10T06:22:46;97543.47;;;33.36;31.69
32456;BME280;18912;43.270;27.942;2023-06-10T06:25:12;97548.31;;;33.20;31.76
32456;BME280;18912;43.270;27.942;2023-06-10T06:27:37;97544.03;;;33.26;31.78
32456;BME280;18912;43.270;27.942;2023-06-10T06:30:03;97548.94;;;32.94;32.34
32456;BME280;18912;43.270;27.942;2023-06-10T06:32:28;97553.00;;;32.46;32.75
32456;BME280;18912;43.270;27.942;2023-06-10T06:34:53;97551.13;;;31.48;33.94
32456;BME280;18912;43.270;27.942;2023-06-10T06:37:22;97552.13;;;31.28;34.24
32456;BME280;18912;43.270;27.942;2023-06-10T06:39:51;97549.56;;;31.63;34.00
32456;BME280;18912;43.270;27.942;2023-06-10T06:42:17;97554.41;;;32.25;32.79
32456;BME280;18912;43.270;27.942;2023-06-10T06:44:42;97551.47;;;31.90;33.03
32456;BME280;18912;43.270;27.942;2023-06-10T06:47:07;97552.16;;;31.99;32.61
32456;BME280;18912;43.270;27.942;2023-06-10T06:49:33;97549.53;;;31.90;33.58
32456;BME280;18912;43.270;27.942;2023-06-10T06:51:58;97536.00;;;31.92;33.05
32456;BME280;18912;43.270;27.942;2023-06-10T06:54:24;97546.31;;;32.20;32.67
32456;BME280;18912;43.270;27.942;2023-06-10T06:56:50;97547.50;;;33.19;32.41
32456;BME280;18912;43.270;27.942;2023-06-10T06:59:15;97540.25;;;33.53;29.81
32456;BME280;18912;43.270;27.942;2023-06-10T07:01:42;97535.91;;;33.78;28.67
32456;BME280;18912;43.270;27.942;2023-06-10T07:04:07;97539.34;;;33.68;29.85
32456;BME280;18912;43.270;27.942;2023-06-10T07:06:32;97528.59;;;33.92;29.51
32456;BME280;18912;43.270;27.942;2023-06-10T07:08:58;97535.38;;;34.14;28.96
32456;BME280;18912;43.270;27.942;2023-06-10T07:11:23;97530.53;;;33.69;30.68
32456;BME280;18912;43.270;27.942;2023-06-10T07:13:48;97527.09;;;33.57;30.72
32456;BME280;18912;43.270;27.942;2023-06-10T07:16:14;97525.00;;;32.96;30.88
32456;BME280;18912;43.270;27.942;2023-06-10T07:18:39;97515.16;;;33.22;30.38
32456;BME280;18912;43.270;27.942;2023-06-10T07:21:05;97520.00;;;33.25;29.12
32456;BME280;18912;43.270;27.942;2023-06-10T07:23:30;97524.38;;;34.25;28.21
32456;BME280;18912;43.270;27.942;2023-06-10T07:25:55;97526.88;;;33.46;30.16
32456;BME280;18912;43.270;27.942;2023-06-10T07:28:21;97527.91;;;33.99;29.85
32456;BME280;18912;43.270;27.942;2023-06-10T07:30:46;97522.25;;;34.93;28.80
32456;BME280;18912;43.270;27.942;2023-06-10T07:33:11;97528.47;;;34.53;29.11
32456;BME280;18912;43.270;27.942;2023-06-10T07:35:36;97532.16;;;34.57;28.95
32456;BME280;18912;43.270;27.942;2023-06-10T07:38:02;97529.97;;;35.00;28.21
32456;BME280;18912;43.270;27.942;2023-06-10T07:40:27;97522.78;;;35.32;27.42
32456;BME280;18912;43.270;27.942;2023-06-10T07:42:52;97522.69;;;35.25;27.13
32456;BME280;18912;43.270;27.942;2023-06-10T07:45:18;97529.41;;;34.61;27.86
32456;BME280;18912;43.270;27.942;2023-06-10T07:47:44;97531.16;;;34.24;28.72
32456;BME280;18912;43.270;27.942;2023-06-10T07:50:10;97529.09;;;33.37;29.52
32456;BME280;18912;43.270;27.942;2023-06-10T07:52:35;97520.69;;;33.18;30.56
32456;BME280;18912;43.270;27.942;2023-06-10T07:55:00;97527.00;;;33.15;30.36
32456;BME280;18912;43.270;27.942;2023-06-10T07:57:26;97531.72;;;33.91;30.36
32456;BME280;18912;43.270;27.942;2023-06-10T07:59:51;97528.47;;;34.79;28.49
32456;BME280;18912;43.270;27.942;2023-06-10T08:02:17;97525.94;;;34.97;27.73
32456;BME280;18912;43.270;27.942;2023-06-10T08:04:42;97518.09;;;35.10;27.52
32456;BME280;18912;43.270;27.942;2023-06-10T08:07:07;97526.78;;;35.31;27.48
32456;BME280;18912;43.270;27.942;2023-06-10T08:09:33;97517.38;;;35.46;25.99
32456;BME280;18912;43.270;27.942;2023-06-10T08:11:58;97518.06;;;36.09;26.43
32456;BME280;18912;43.270;27.942;2023-06-10T08:14:23;97515.00;;;36.76;26.39
32456;BME280;18912;43.270;27.942;2023-06-10T08:16:49;97514.91;;;36.62;26.01
32456;BME280;18912;43.270;27.942;2023-06-10T08:19:14;97512.38;;;36.02;25.55
32456;BME280;18912;43.270;27.942;2023-06-10T08:21:39;97520.69;;;36.32;26.86
32456;BME280;18912;43.270;27.942;2023-06-10T08:24:08;97512.59;;;35.50;26.30
32456;BME280;18912;43.270;27.942;2023-06-10T08:26:34;97530.97;;;35.77;26.59
32456;BME280;18912;43.270;27.942;2023-06-10T08:28:59;97516.97;;;35.47;26.11
32456;BME280;18912;43.270;27.942;2023-06-10T08:31:24;97511.75;;;35.16;26.25
32456;BME280;18912;43.270;27.942;2023-06-10T08:33:50;97523.31;;;35.74;25.84
32456;BME280;18912;43.270;27.942;2023-06-10T08:36:15;97519.09;;;35.57;25.83
32456;BME280;18912;43.270;27.942;2023-06-10T08:38:40;97519.84;;;35.54;26.00
32456;BME280;18912;43.270;27.942;2023-06-10T08:41:06;97523.16;;;35.97;25.32
32456;BME280;18912;43.270;27.942;2023-06-10T08:43:33;97517.19;;;36.02;25.51
32456;BME280;18912;43.270;27.942;2023-06-10T08:45:59;97521.88;;;36.34;25.85
32456;BME280;18912;43.270;27.942;2023-06-10T08:48:27;97525.13;;;36.36;26.14
32456;BME280;18912;43.270;27.942;2023-06-10T08:50:54;97517.66;;;36.07;26.96
32456;BME280;18912;43.270;27.942;2023-06-10T08:53:20;97523.75;;;36.60;27.10
32456;BME280;18912;43.270;27.942;2023-06-10T08:55:48;97514.91;;;37.23;26.26
32456;BME280;18912;43.270;27.942;2023-06-10T08:58:16;97514.91;;;36.62;26.82
32456;BME280;18912;43.270;27.942;2023-06-10T09:00:41;97520.72;;;36.35;27.17
32456;BME280;18912;43.270;27.942;2023-06-10T09:03:07;97519.56;;;36.91;26.24
32456;BME280;18912;43.270;27.942;2023-06-10T09:05:34;97504.50;;;37.30;25.19
32456;BME280;18912;43.270;27.942;2023-06-10T09:08:01;97499.31;;;36.82;25.73
32456;BME280;18912;43.270;27.942;2023-06-10T09:10:26;97502.19;;;36.34;26.41
32456;BME280;18912;43.270;27.942;2023-06-10T09:12:52;97503.91;;;36.42;26.07
32456;BME280;18912;43.270;27.942;2023-06-10T09:15:17;97491.41;;;36.98;26.02
32456;BME280;18912;43.270;27.942;2023-06-10T09:17:43;97497.63;;;37.35;25.63
32456;BME280;18912;43.270;27.942;2023-06-10T09:20:08;97486.06;;;37.68;25.47
32456;BME280;18912;43.270;27.942;2023-06-10T09:22:34;97485.00;;;38.43;23.88
32456;BME280;18912;43.270;27.942;2023-06-10T09:25:06;97493.41;;;38.82;23.98
32456;BME280;18912;43.270;27.942;2023-06-10T09:27:33;97492.97;;;39.01;23.79
32456;BME280;18912;43.270;27.942;2023-06-10T09:30:08;97489.44;;;38.41;22.73
32456;BME280;18912;43.270;27.942;2023-06-10T09:32:38;97489.03;;;38.39;24.15
32456;BME280;18912;43.270;27.942;2023-06-10T09:35:08;97490.22;;;38.52;23.78
32456;BME280;18912;43.270;27.942;2023-06-10T09:37:34;97493.81;;;38.10;23.71
32456;BME280;18912;43.270;27.942;2023-06-10T09:40:06;97484.13;;;38.11;22.96
32456;BME280;18912;43.270;27.942;2023-06-10T09:42:33;97488.56;;;37.94;22.58
32456;BME280;18912;43.270;27.942;2023-06-10T09:44:59;97478.94;;;38.16;22.75
32456;BME280;18912;43.270;27.942;2023-06-10T09:47:25;97479.31;;;38.04;22.97
32456;BME280;18912;43.270;27.942;2023-06-10T09:49:50;97478.91;;;37.99;22.52
32456;BME280;18912;43.270;27.942;2023-06-10T09:52:24;97482.16;;;38.68;22.38
32456;BME280;18912;43.270;27.942;2023-06-10T09:54:51;97482.03;;;39.06;21.91
32456;BME280;18912;43.270;27.942;2023-06-10T09:57:17;97482.06;;;37.73;22.81
32456;BME280;18912;43.270;27.942;2023-06-10T09:59:42;97473.44;;;37.23;23.35
32456;BME280;18912;43.270;27.942;2023-06-10T10:02:13;97472.28;;;37.35;23.78
32456;BME280;18912;43.270;27.942;2023-06-10T10:04:38;97476.19;;;37.06;25.03
32456;BME280;18912;43.270;27.942;2023-06-10T10:07:03;97480.31;;;37.33;23.86
32456;BME280;18912;43.270;27.942;2023-06-10T10:09:29;97469.91;;;37.44;24.16
32456;BME280;18912;43.270;27.942;2023-06-10T10:11:54;97474.38;;;37.66;23.57
32456;BME280;18912;43.270;27.942;2023-06-10T10:14:20;97469.09;;;37.40;23.48
32456;BME280;18912;43.270;27.942;2023-06-10T10:16:46;97466.97;;;37.19;23.41
32456;BME280;18912;43.270;27.942;2023-06-10T10:19:14;97465.44;;;37.32;24.36
32456;BME280;18912;43.270;27.942;2023-06-10T10:21:46;97464.94;;;37.20;23.63
32456;BME280;18912;43.270;27.942;2023-06-10T10:24:14;97460.53;;;37.19;23.73
32456;BME280;18912;43.270;27.942;2023-06-10T10:26:41;97461.25;;;37.02;22.95
32456;BME280;18912;43.270;27.942;2023-06-10T10:31:35;97470.16;;;36.49;24.00
32456;BME280;18912;43.270;27.942;2023-06-10T10:34:02;97468.31;;;36.20;24.09
32456;BME280;18912;43.270;27.942;2023-06-10T10:36:29;97468.41;;;36.31;24.48
32456;BME280;18912;43.270;27.942;2023-06-10T10:38:55;97455.41;;;36.16;24.70
32456;BME280;18912;43.270;27.942;2023-06-10T10:41:21;97458.84;;;36.39;25.62
32456;BME280;18912;43.270;27.942;2023-06-10T10:43:48;97449.41;;;36.72;25.42
32456;BME280;18912;43.270;27.942;2023-06-10T10:46:16;97449.16;;;36.98;24.23
32456;BME280;18912;43.270;27.942;2023-06-10T10:48:42;97457.97;;;36.31;25.50
32456;BME280;18912;43.270;27.942;2023-06-10T10:51:08;97451.50;;;36.27;26.05
32456;BME280;18912;43.270;27.942;2023-06-10T10:53:34;97452.75;;;35.90;26.60
32456;BME280;18912;43.270;27.942;2023-06-10T10:56:00;97457.97;;;36.35;26.21
32456;BME280;18912;43.270;27.942;2023-06-10T10:58:29;97461.50;;;36.21;25.14
32456;BME280;18912;43.270;27.942;2023-06-10T11:00:55;97452.94;;;35.67;26.35
32456;BME280;18912;43.270;27.942;2023-06-10T11:03:20;97445.25;;;36.51;25.72
32456;BME280;18912;43.270;27.942;2023-06-10T11:05:46;97448.00;;;37.09;25.19
32456;BME280;18912;43.270;27.942;2023-06-10T11:10:58;97443.94;;;37.00;23.80
32456;BME280;18912;43.270;27.942;2023-06-10T11:13:23;97436.88;;;37.41;23.86
32456;BME280;18912;43.270;27.942;2023-06-10T11:15:50;97432.94;;;37.84;22.90
32456;BME280;18912;43.270;27.942;2023-06-10T11:28:37;97426.53;;;36.84;23.69
32456;BME280;18912;43.270;27.942;2023-06-10T11:31:02;97422.56;;;36.85;24.39
32456;BME280;18912;43.270;27.942;2023-06-10T11:33:28;97425.84;;;36.36;24.95
32456;BME280;18912;43.270;27.942;2023-06-10T11:35:53;97423.53;;;36.48;25.02
32456;BME280;18912;43.270;27.942;2023-06-10T11:38:20;97417.09;;;36.48;24.62
32456;BME280;18912;43.270;27.942;2023-06-10T11:40:48;97411.47;;;36.51;25.63
32456;BME280;18912;43.270;27.942;2023-06-10T11:43:15;97409.25;;;35.77;26.67
32456;BME280;18912;43.270;27.942;2023-06-10T11:45:41;97406.06;;;35.78;25.27
32456;BME280;18912;43.270;27.942;2023-06-10T11:48:06;97401.31;;;35.86;25.76
32456;BME280;18912;43.270;27.942;2023-06-10T11:50:32;97409.09;;;35.99;25.24
32456;BME280;18912;43.270;27.942;2023-06-10T11:52:58;97400.19;;;36.44;24.94
32456;BME280;18912;43.270;27.942;2023-06-10T11:55:24;97403.69;;;35.84;25.59
32456;BME280;18912;43.270;27.942;2023-06-10T11:57:50;97394.94;;;36.39;24.47
32456;BME280;18912;43.270;27.942;2023-06-10T12:00:22;97386.78;;;36.27;24.27
32456;BME280;18912;43.270;27.942;2023-06-10T12:02:54;97376.78;;;36.37;24.16
32456;BME280;18912;43.270;27.942;2023-06-10T12:05:20;97381.34;;;35.98;24.87
32456;BME280;18912;43.270;27.942;2023-06-10T12:07:45;97385.31;;;35.93;25.62
32456;BME280;18912;43.270;27.942;2023-06-10T12:10:11;97379.91;;;36.21;25.45
32456;BME280;18912;43.270;27.942;2023-06-10T12:12:36;97383.28;;;36.41;25.48
32456;BME280;18912;43.270;27.942;2023-06-10T12:15:06;97382.97;;;36.60;25.08
32456;BME280;18912;43.270;27.942;2023-06-10T12:19:57;97374.44;;;36.42;25.28
32456;BME280;18912;43.270;27.942;2023-06-10T12:22:23;97364.94;;;36.72;25.61
32456;BME280;18912;43.270;27.942;2023-06-10T12:24:59;97365.78;;;36.83;25.11
32456;BME280;18912;43.270;27.942;2023-06-10T12:27:25;97373.94;;;37.12;24.39
32456;BME280;18912;43.270;27.942;2023-06-10T12:29:53;97366.34;;;36.37;24.95
32456;BME280;18912;43.270;27.942;2023-06-10T12:32:19;97345.66;;;36.09;25.40
32456;BME280;18912;43.270;27.942;2023-06-10T12:34:47;97366.56;;;34.91;27.36
32456;BME280;18912;43.270;27.942;2023-06-10T12:37:13;97355.59;;;35.92;26.89
32456;BME280;18912;43.270;27.942;2023-06-10T12:39:38;97359.03;;;36.22;26.01
32456;BME280;18912;43.270;27.942;2023-06-10T12:42:04;97359.81;;;36.23;26.08
32456;BME280;18912;43.270;27.942;2023-06-10T12:44:31;97365.56;;;36.40;26.56
32456;BME280;18912;43.270;27.942;2023-06-10T12:46:57;97356.22;;;36.26;26.84
32456;BME280;18912;43.270;27.942;2023-06-10T12:49:22;97356.66;;;36.31;26.85
32456;BME280;18912;43.270;27.942;2023-06-10T12:51:47;97353.69;;;36.79;26.56
32456;BME280;18912;43.270;27.942;2023-06-10T12:54:13;97350.94;;;36.86;26.17
32456;BME280;18912;43.270;27.942;2023-06-10T12:56:39;97347.00;;;37.11;26.45
32456;BME280;18912;43.270;27.942;2023-06-10T12:59:04;97343.91;;;36.48;26.22
32456;BME280;18912;43.270;27.942;2023-06-10T13:01:29;97353.91;;;37.31;25.92
32456;BME280;18912;43.270;27.942;2023-06-10T13:03:56;97349.09;;;37.67;25.70